Airfield :
LOGIN :

Register | Disclaimer

   EN    FR    IT 

 










Legend :    VFR   Marginal VFR   IFR   Intensive IFR   Very Intensive IFR
Visi :
Ceiling :
>= 8 km
>= 3000ft
5 to 8 km
1000 to 3000 ft
1500m to 5 km
500 to 1000 ft
800 to 1500m
200 to 500 ft
< 800m
< 200 ft
Symbols :   Thunderstorms  Fog  Heavy snow  Heavy precipitations  Wind > 20 kt
SIGMETs :     Misc.  Thunderstorms  Icing  Turbulence  Mountain Waves  Volcanic Ashes






- Airport Elevation : 1197 ft
- IATA code : SPM


ETAD - Spangdahlem Ab

CURRENT METAR :
  • 200620Z AUTO 26006KT 9999 -RA FEW012 01/01 A3023 RMK AO2 RAB12E13DZB13E16RAB16 SLP246 TSNO $

EXPIRED METARs :
  • 200613Z AUTO 26004KT 9999 -RA CLR 01/01 A3022 RMK AO2 RAB12 SLP243 TSNO $
  • 200556Z 29006KT 9999 CLR 01/00 A3022 RMK AO2A UPB0456E15 SLP243 P0000 60000 T00080004 10021 21009 55001 TSNO $
  • 200515Z 26006KT 9999 SCT040 01/01 A3022 RMK AO2A RAB0456E15 SLP243 TSNO $
  • 200457Z AUTO 27004KT 9999 -UP CLR M00/M00 A3022 RMK AO2 UPB56 SLP243 TSNO $
  • 200356Z AUTO 26005KT 9999 CLR 00/00 A3022 RMK AO2 SLP243 T00020001 TSNO $

TAF TAF ETAD
Valid from the 20 at 05:00 until the 21 at 11:00 UTC


200500Z 2005/2111 27006KT 9999 SCT015 BKN020 620205 QNH3020INS
TEMPO 2005/2008 5000 BR BKN015
BECMG 2009/2010 33015G20KT 9999 SCT015 BKN025 620254 QNH3029INS
TEMPO 2010/2012 6000 -RASN OVC015
BECMG 2018/2019 33010G15KT 9999 SCT020 BKN030 620304 QNH3038INS
BECMG 2100/2101 32009KT 9999 SCT030 QNH3047INS TX02/2013Z TNM02/2103Z



MET'MAP, your aeronautical weather chart ! - Copyright ORBIFLY December 2007 - Disclaimer

ORBIFLY MET'MAP TEAM :

Programming & Development : Alexandra Zaïnal
Concept & original design : Baudouin d'Aumeries
Assistance for programming : Marc-Olivier Méhu
Technical & hardware support : Manuel Goepfert

Contact : metmap@orbifly.com




SOURCES & CREDITS :

   NOAA